Time,TemperatureF,DewpointF,PressureIn,WindDirection,WindDirectionDegrees,WindSpeedMPH,WindSpeedGustMPH,Humidity,HourlyPrecipIn,Conditions,Clouds,dailyrainin,SoftwareType,DateUTC
2013-02-26 00:00:00,30.7,23.0,29.75,South,184,13.0,19.0,73,0.00,,,0.00,VWS V14.01,2013-02-26 06:00:00,
2013-02-26 00:05:00,30.8,23.1,29.75,SSW,195,17.0,19.0,73,0.00,,,0.00,VWS V14.01,2013-02-26 06:05:00,
2013-02-26 00:10:00,30.9,23.2,29.75,South,184,20.0,20.0,73,0.00,,,0.00,VWS V14.01,2013-02-26 06:10:00,
2013-02-26 00:15:00,31.2,23.5,29.75,South,184,11.0,21.0,73,0.00,,,0.00,VWS V14.01,2013-02-26 06:15:00,
2013-02-26 00:20:00,31.2,23.5,29.74,South,191,9.0,21.0,73,0.00,,,0.00,VWS V14.01,2013-02-26 06:20:00,
2013-02-26 00:25:00,31.2,23.5,29.74,South,190,14.0,21.0,73,0.00,,,0.00,VWS V14.01,2013-02-26 06:25:00,
2013-02-26 00:30:00,31.4,23.7,29.75,SSW,199,13.0,21.0,73,0.00,,,0.00,VWS V14.01,2013-02-26 06:30:00,
2013-02-26 00:35:00,31.2,23.5,29.74,South,182,15.0,21.0,73,0.00,,,0.00,VWS V14.01,2013-02-26 06:35:00,
2013-02-26 00:40:00,31.2,23.5,29.75,South,180,14.0,21.0,73,0.00,,,0.00,VWS V14.01,2013-02-26 06:40:00,
2013-02-26 00:45:00,31.1,23.7,29.75,South,175,9.0,21.0,74,0.00,,,0.00,VWS V14.01,2013-02-26 06:45:00,
2013-02-26 00:50:00,31.1,23.7,29.74,South,172,13.0,20.0,74,0.00,,,0.00,VWS V14.01,2013-02-26 06:50:00,
2013-02-26 00:55:00,31.2,23.8,29.74,South,190,14.0,22.0,74,0.00,,,0.00,VWS V14.01,2013-02-26 06:55:00,
2013-02-26 01:00:00,30.9,23.5,29.75,South,169,12.0,22.0,74,0.00,,,0.00,VWS V14.01,2013-02-26 07:00:00,
2013-02-26 01:05:00,30.7,23.6,29.75,South,169,16.0,20.0,75,0.00,,,0.00,VWS V14.01,2013-02-26 07:05:00,
2013-02-26 01:10:00,30.3,23.2,29.74,South,176,15.0,20.0,75,0.00,,,0.00,VWS V14.01,2013-02-26 07:10:00,
2013-02-26 01:15:00,30.2,23.5,29.75,SSW,197,9.0,20.0,76,0.00,,,0.00,VWS V14.01,2013-02-26 07:15:00,
2013-02-26 01:20:00,30.3,23.9,29.74,South,182,11.0,18.0,77,0.00,,,0.00,VWS V14.01,2013-02-26 07:20:00,
2013-02-26 01:25:00,30.5,23.8,29.74,South,184,11.0,20.0,76,0.00,,,0.00,VWS V14.01,2013-02-26 07:25:00,
2013-02-26 01:30:00,30.4,23.7,29.75,SSW,192,13.0,20.0,76,0.00,,,0.00,VWS V14.01,2013-02-26 07:30:00,
2013-02-26 01:35:00,30.3,23.9,29.74,SSW,195,8.0,20.0,77,0.00,,,0.00,VWS V14.01,2013-02-26 07:35:00,
2013-02-26 01:40:00,30.1,23.7,29.74,SSW,194,12.0,20.0,77,0.00,,,0.00,VWS V14.01,2013-02-26 07:40:00,
2013-02-26 01:45:00,29.7,23.3,29.74,South,179,14.0,20.0,77,0.00,,,0.00,VWS V14.01,2013-02-26 07:45:00,
2013-02-26 01:50:00,29.5,23.4,29.75,South,188,10.0,18.0,78,0.00,,,0.00,VWS V14.01,2013-02-26 07:50:00,
2013-02-26 01:55:00,29.3,23.2,29.75,South,178,10.0,18.0,78,0.00,,,0.00,VWS V14.01,2013-02-26 07:55:00,
2013-02-26 02:00:00,29.1,23.3,29.75,South,186,14.0,18.0,79,0.00,,,0.00,VWS V14.01,2013-02-26 08:00:00,
2013-02-26 02:05:00,28.9,23.1,29.75,SSW,207,12.0,19.0,79,0.00,,,0.00,VWS V14.01,2013-02-26 08:05:00,
2013-02-26 02:10:00,28.8,23.0,29.75,South,176,8.0,20.0,79,0.00,,,0.00,VWS V14.01,2013-02-26 08:10:00,
2013-02-26 02:15:00,28.7,23.2,29.75,South,182,16.0,20.0,80,0.00,,,0.00,VWS V14.01,2013-02-26 08:15:00,
2013-02-26 02:20:00,28.6,23.1,29.75,SSW,200,15.0,16.0,80,0.00,,,0.00,VWS V14.01,2013-02-26 08:20:00,
2013-02-26 02:25:00,28.5,23.0,29.75,South,180,14.0,19.0,80,0.00,,,0.00,VWS V14.01,2013-02-26 08:25:00,
2013-02-26 02:30:00,28.5,23.0,29.75,SSW,200,11.0,19.0,80,0.00,,,0.00,VWS V14.01,2013-02-26 08:30:00,
2013-02-26 02:35:00,28.4,23.2,29.75,South,184,9.0,15.0,81,0.00,,,0.00,VWS V14.01,2013-02-26 08:35:00,
2013-02-26 02:40:00,28.3,23.1,29.75,South,188,13.0,18.0,81,0.00,,,0.00,VWS V14.01,2013-02-26 08:40:00,
2013-02-26 02:45:00,28.4,23.2,29.75,South,177,10.0,18.0,81,0.00,,,0.00,VWS V14.01,2013-02-26 08:45:00,
2013-02-26 02:50:00,28.3,23.1,29.75,South,187,10.0,18.0,81,0.00,,,0.00,VWS V14.01,2013-02-26 08:50:00,
2013-02-26 02:55:00,28.2,23.0,29.75,South,188,14.0,18.0,81,0.00,,,0.00,VWS V14.01,2013-02-26 08:55:00,
2013-02-26 03:00:00,28.0,22.9,29.75,South,180,12.0,19.0,81,0.00,,,0.00,VWS V14.01,2013-02-26 09:00:00,
2013-02-26 03:05:00,27.8,22.9,29.75,South,173,11.0,17.0,82,0.00,,,0.00,VWS V14.01,2013-02-26 09:05:00,
2013-02-26 03:10:00,27.7,22.9,29.74,South,186,9.0,19.0,82,0.00,,,0.00,VWS V14.01,2013-02-26 09:10:00,
2013-02-26 03:15:00,27.7,22.9,29.75,South,171,15.0,19.0,82,0.00,,,0.00,VWS V14.01,2013-02-26 09:15:00,
2013-02-26 03:20:00,27.6,22.8,29.75,SSW,192,15.0,17.0,82,0.00,,,0.00,VWS V14.01,2013-02-26 09:20:00,
2013-02-26 03:25:00,27.4,22.5,29.74,South,169,12.0,19.0,82,0.00,,,0.00,VWS V14.01,2013-02-26 09:25:00,
2013-02-26 03:30:00,27.2,22.4,29.75,South,187,17.0,19.0,82,0.00,,,0.00,VWS V14.01,2013-02-26 09:30:00,
2013-02-26 03:35:00,27.0,22.5,29.75,South,170,13.0,21.0,83,0.00,,,0.00,VWS V14.01,2013-02-26 09:35:00,
2013-02-26 03:40:00,26.9,22.4,29.74,South,183,8.0,21.0,83,0.00,,,0.00,VWS V14.01,2013-02-26 09:40:00,
2013-02-26 03:45:00,26.9,22.4,29.74,South,189,12.0,21.0,83,0.00,,,0.00,VWS V14.01,2013-02-26 09:45:00,
2013-02-26 03:50:00,27.0,22.7,29.74,SSW,194,7.0,17.0,84,0.00,,,0.00,VWS V14.01,2013-02-26 09:50:00,
2013-02-26 03:55:00,27.3,22.7,29.74,South,180,9.0,17.0,83,0.00,,,0.00,VWS V14.01,2013-02-26 09:55:00,
2013-02-26 04:00:00,27.3,22.7,29.74,South,180,7.0,17.0,83,0.00,,,0.00,VWS V14.01,2013-02-26 10:00:00,
2013-02-26 04:05:00,27.5,23.2,29.74,SSW,196,8.0,17.0,84,0.00,,,0.00,VWS V14.01,2013-02-26 10:05:00,
2013-02-26 04:10:00,27.6,23.0,29.74,South,190,8.0,17.0,83,0.00,,,0.00,VWS V14.01,2013-02-26 10:10:00,
2013-02-26 04:15:00,27.5,22.9,29.74,SSW,198,7.0,17.0,83,0.00,,,0.00,VWS V14.01,2013-02-26 10:15:00,
2013-02-26 04:20:00,27.5,22.9,29.74,South,188,9.0,13.0,83,0.00,,,0.00,VWS V14.01,2013-02-26 10:20:00,
2013-02-26 04:25:00,27.2,22.6,29.74,SSW,197,7.0,15.0,83,0.00,,,0.00,VWS V14.01,2013-02-26 10:25:00,
2013-02-26 04:30:00,27.0,22.5,29.74,South,190,12.0,15.0,83,0.00,,,0.00,VWS V14.01,2013-02-26 10:30:00,
2013-02-26 04:35:00,26.8,22.2,29.74,SSE,165,8.0,18.0,83,0.00,,,0.00,VWS V14.01,2013-02-26 10:35:00,
2013-02-26 04:40:00,26.5,22.0,29.74,SSW,192,7.0,18.0,83,0.00,,,0.00,VWS V14.01,2013-02-26 10:40:00,
2013-02-26 04:45:00,26.2,22.0,29.74,South,187,7.0,18.0,84,0.00,,,0.00,VWS V14.01,2013-02-26 10:45:00,
2013-02-26 04:50:00,26.2,22.0,29.75,SSW,194,8.0,15.0,84,0.00,,,0.00,VWS V14.01,2013-02-26 10:50:00,
2013-02-26 04:55:00,26.2,22.0,29.75,South,191,10.0,15.0,84,0.00,,,0.00,VWS V14.01,2013-02-26 10:55:00,
2013-02-26 05:00:00,26.1,21.9,29.75,SSW,196,7.0,15.0,84,0.00,,,0.00,VWS V14.01,2013-02-26 11:00:00,
2013-02-26 05:05:00,26.2,22.2,29.75,SW,215,10.0,15.0,85,0.00,,,0.00,VWS V14.01,2013-02-26 11:05:00,
2013-02-26 05:10:00,26.1,21.9,29.75,SSE,166,9.0,17.0,84,0.00,,,0.00,VWS V14.01,2013-02-26 11:10:00,
2013-02-26 05:15:00,26.0,21.8,29.76,South,181,8.0,17.0,84,0.00,,,0.00,VWS V14.01,2013-02-26 11:15:00,
2013-02-26 05:20:00,25.6,21.4,29.76,SSW,194,7.0,12.0,84,0.00,,,0.00,VWS V14.01,2013-02-26 11:20:00,
2013-02-26 05:25:00,25.6,21.6,29.76,South,187,7.0,12.0,85,0.00,,,0.00,VWS V14.01,2013-02-26 11:25:00,
2013-02-26 05:30:00,25.5,21.5,29.76,SSW,197,5.0,12.0,85,0.00,,,0.00,VWS V14.01,2013-02-26 11:30:00,
2013-02-26 05:35:00,25.4,21.5,29.76,SSW,198,7.0,8.0,85,0.00,,,0.00,VWS V14.01,2013-02-26 11:35:00,
2013-02-26 05:40:00,25.5,21.5,29.77,SSW,203,5.0,9.0,85,0.00,,,0.00,VWS V14.01,2013-02-26 11:40:00,
2013-02-26 05:44:00,25.6,21.6,29.77,South,180,8.0,9.0,85,0.00,,,0.00,VWS V14.01,2013-02-26 11:44:00,
2013-02-26 05:45:00,25.7,21.7,29.77,South,184,11.0,15.0,85,0.00,,,0.00,VWS V14.01,2013-02-26 11:45:00,
2013-02-26 05:49:00,25.7,21.7,29.77,SSE,164,6.0,12.0,85,0.00,,,0.00,VWS V14.01,2013-02-26 11:49:00,
2013-02-26 05:54:00,25.5,21.5,29.77,SSE,167,9.0,12.0,85,0.00,,,0.00,VWS V14.01,2013-02-26 11:54:00,
2013-02-26 05:59:00,25.6,21.6,29.77,South,187,12.0,17.0,85,0.00,,,0.00,VWS V14.01,2013-02-26 11:59:00,
2013-02-26 06:00:00,25.5,21.5,29.77,South,183,6.0,17.0,85,0.00,,,0.00,VWS V14.01,2013-02-26 12:00:00,
2013-02-26 06:04:00,25.5,21.5,29.77,SSW,194,7.0,13.0,85,0.00,,,0.00,VWS V14.01,2013-02-26 12:04:00,
2013-02-26 06:09:00,25.4,21.5,29.77,South,188,9.0,13.0,85,0.00,,,0.00,VWS V14.01,2013-02-26 12:09:00,
2013-02-26 06:14:00,25.4,21.5,29.77,South,182,4.0,13.0,85,0.00,,,0.00,VWS V14.01,2013-02-26 12:14:00,
2013-02-26 06:15:00,25.4,21.5,29.77,SSW,192,4.0,13.0,85,0.00,,,0.00,VWS V14.01,2013-02-26 12:15:00,
2013-02-26 06:19:00,25.3,21.4,29.77,SSW,209,7.0,8.0,85,0.00,,,0.00,VWS V14.01,2013-02-26 12:19:00,
2013-02-26 06:24:00,25.3,21.4,29.78,SSW,207,6.0,8.0,85,0.00,,,0.00,VWS V14.01,2013-02-26 12:24:00,
2013-02-26 06:29:00,25.1,21.1,29.77,SSW,207,6.0,9.0,85,0.00,,,0.00,VWS V14.01,2013-02-26 12:29:00,
2013-02-26 06:30:00,25.0,21.0,29.77,SSW,198,6.0,9.0,85,0.00,,,0.00,VWS V14.01,2013-02-26 12:30:00,
2013-02-26 06:34:00,24.9,21.0,29.77,SSW,198,6.0,11.0,85,0.00,,,0.00,VWS V14.01,2013-02-26 12:34:00,
2013-02-26 06:39:00,24.5,20.6,29.78,South,188,4.0,11.0,85,0.00,,,0.00,VWS V14.01,2013-02-26 12:39:00,
2013-02-26 06:44:00,24.3,20.6,29.78,SSW,211,2.0,11.0,86,0.00,,,0.00,VWS V14.01,2013-02-26 12:44:00,
2013-02-26 06:45:00,24.3,20.6,29.78,SSW,211,0.0,11.0,86,0.00,,,0.00,VWS V14.01,2013-02-26 12:45:00,
2013-02-26 06:49:00,24.0,20.1,29.79,South,169,0.0,3.0,85,0.00,,,0.00,VWS V14.01,2013-02-26 12:49:00,
2013-02-26 06:54:00,23.8,19.9,29.78,South,175,4.0,4.0,85,0.00,,,0.00,VWS V14.01,2013-02-26 12:54:00,
2013-02-26 06:59:00,23.7,20.0,29.78,SSW,206,4.0,6.0,86,0.00,,,0.00,VWS V14.01,2013-02-26 12:59:00,
2013-02-26 07:00:00,23.7,20.0,29.78,SSW,206,3.0,6.0,86,0.00,,,0.00,VWS V14.01,2013-02-26 13:00:00,
2013-02-26 07:04:00,23.6,20.0,29.78,SW,225,5.0,7.0,86,0.00,,,0.00,VWS V14.01,2013-02-26 13:04:00,
2013-02-26 07:09:00,23.5,19.9,29.79,SW,220,2.0,8.0,86,0.00,,,0.00,VWS V14.01,2013-02-26 13:09:00,
2013-02-26 07:14:00,23.5,19.9,29.79,SW,220,1.0,8.0,86,0.00,,,0.00,VWS V14.01,2013-02-26 13:14:00,
2013-02-26 07:15:00,23.2,19.6,29.79,SW,220,0.0,8.0,86,0.00,,,0.00,VWS V14.01,2013-02-26 13:15:00,
2013-02-26 07:19:00,23.0,19.4,29.79,SW,220,0.0,0.0,86,0.00,,,0.00,VWS V14.01,2013-02-26 13:19:00,
2013-02-26 07:24:00,22.8,19.2,29.80,SW,220,0.0,0.0,86,0.00,,,0.00,VWS V14.01,2013-02-26 13:24:00,
2013-02-26 07:29:00,22.7,19.1,29.81,SW,220,2.0,3.0,86,0.00,,,0.00,VWS V14.01,2013-02-26 13:29:00,
2013-02-26 07:30:00,22.6,19.0,29.81,SW,220,2.0,3.0,86,0.00,,,0.00,VWS V14.01,2013-02-26 13:30:00,
2013-02-26 07:34:00,22.5,18.9,29.81,SW,220,0.0,3.0,86,0.00,,,0.00,VWS V14.01,2013-02-26 13:34:00,
2013-02-26 07:39:00,22.3,18.7,29.81,SW,220,2.0,4.0,86,0.00,,,0.00,VWS V14.01,2013-02-26 13:39:00,
2013-02-26 07:44:00,22.2,18.6,29.81,SW,220,1.0,4.0,86,0.00,,,0.00,VWS V14.01,2013-02-26 13:44:00,
2013-02-26 07:45:00,22.1,18.5,29.81,SSW,196,3.0,4.0,86,0.00,,,0.00,VWS V14.01,2013-02-26 13:45:00,
2013-02-26 07:49:00,22.2,18.9,29.80,SSE,158,0.0,5.0,87,0.00,,,0.00,VWS V14.01,2013-02-26 13:49:00,
2013-02-26 07:54:00,22.2,18.9,29.81,SSE,158,0.0,5.0,87,0.00,,,0.00,VWS V14.01,2013-02-26 13:54:00,
2013-02-26 07:59:00,22.3,19.0,29.82,SSE,158,1.0,5.0,87,0.00,,,0.00,VWS V14.01,2013-02-26 13:59:00,
2013-02-26 08:00:00,22.4,19.0,29.81,SSE,158,1.0,5.0,87,0.00,,,0.00,VWS V14.01,2013-02-26 14:00:00,
2013-02-26 08:04:00,22.6,19.2,29.82,SSE,159,2.0,4.0,87,0.00,,,0.00,VWS V14.01,2013-02-26 14:04:00,
2013-02-26 08:09:00,22.9,19.5,29.82,SSE,158,2.0,5.0,87,0.00,,,0.00,VWS V14.01,2013-02-26 14:09:00,
2013-02-26 08:14:00,23.3,19.9,29.82,South,169,0.0,5.0,87,0.00,,,0.00,VWS V14.01,2013-02-26 14:14:00,
2013-02-26 08:15:00,23.3,19.9,29.82,South,169,0.0,5.0,87,0.00,,,0.00,VWS V14.01,2013-02-26 14:15:00,
2013-02-26 08:19:00,23.4,19.8,29.82,South,169,0.0,0.0,86,0.00,,,0.00,VWS V14.01,2013-02-26 14:19:00,
2013-02-26 08:24:00,23.5,19.9,29.82,South,169,0.0,0.0,86,0.00,,,0.00,VWS V14.01,2013-02-26 14:24:00,
2013-02-26 08:29:00,23.7,21.9,29.82,South,169,0.0,0.0,93,0.00,,,0.00,VWS V14.01,2013-02-26 14:29:00,
2013-02-26 08:30:00,23.8,20.1,29.82,South,169,0.0,0.0,86,0.00,,,0.00,VWS V14.01,2013-02-26 14:30:00,
2013-02-26 08:34:00,24.0,20.4,29.83,South,169,0.0,3.0,86,0.00,,,0.00,VWS V14.01,2013-02-26 14:34:00,
2013-02-26 08:39:00,24.2,20.3,29.83,South,169,1.0,3.0,85,0.00,,,0.00,VWS V14.01,2013-02-26 14:39:00,
2013-02-26 08:44:00,24.3,20.4,29.83,South,180,3.0,4.0,85,0.00,,,0.00,VWS V14.01,2013-02-26 14:44:00,
2013-02-26 08:45:00,24.4,20.5,29.83,South,180,0.0,4.0,85,0.00,,,0.00,VWS V14.01,2013-02-26 14:45:00,
2013-02-26 08:49:00,24.5,20.3,29.84,South,180,1.0,3.0,84,0.00,,,0.00,VWS V14.01,2013-02-26 14:49:00,
2013-02-26 08:54:00,24.5,20.0,29.83,SSW,212,4.0,6.0,83,0.00,,,0.00,VWS V14.01,2013-02-26 14:54:00,
2013-02-26 08:59:00,24.5,20.0,29.84,SSW,213,2.0,6.0,83,0.00,,,0.00,VWS V14.01,2013-02-26 14:59:00,
2013-02-26 09:00:00,24.6,20.1,29.84,SSW,213,3.0,6.0,83,0.00,,,0.00,VWS V14.01,2013-02-26 15:00:00,
2013-02-26 09:04:00,24.7,20.2,29.83,SSW,200,4.0,6.0,83,0.00,,,0.00,VWS V14.01,2013-02-26 15:04:00,
2013-02-26 09:09:00,25.1,20.6,29.83,SSW,200,4.0,6.0,83,0.00,,,0.00,VWS V14.01,2013-02-26 15:09:00,
2013-02-26 09:14:00,25.4,20.6,29.84,SSW,205,2.0,6.0,82,0.00,,,0.00,VWS V14.01,2013-02-26 15:14:00,
2013-02-26 09:15:00,25.4,20.6,29.84,SSW,205,5.0,6.0,82,0.00,,,0.00,VWS V14.01,2013-02-26 15:15:00,
2013-02-26 09:19:00,25.6,20.8,29.83,SSW,205,2.0,5.0,82,0.00,,,0.00,VWS V14.01,2013-02-26 15:19:00,
2013-02-26 09:24:00,26.0,20.9,29.83,South,179,5.0,7.0,81,0.00,,,0.00,VWS V14.01,2013-02-26 15:24:00,
2013-02-26 09:29:00,26.1,20.7,29.83,SSE,167,6.0,7.0,80,0.00,,,0.00,VWS V14.01,2013-02-26 15:29:00,
2013-02-26 09:30:00,26.1,20.7,29.83,South,171,5.0,7.0,80,0.00,,,0.00,VWS V14.01,2013-02-26 15:30:00,
2013-02-26 09:34:00,26.3,20.9,29.83,South,175,3.0,5.0,80,0.00,,,0.00,VWS V14.01,2013-02-26 15:34:00,
2013-02-26 09:39:00,26.8,21.4,29.83,SSW,192,3.0,6.0,80,0.00,,,0.00,VWS V14.01,2013-02-26 15:39:00,
2013-02-26 09:44:00,27.0,21.3,29.83,SSW,196,2.0,6.0,79,0.00,,,0.00,VWS V14.01,2013-02-26 15:44:00,
2013-02-26 09:45:00,27.0,21.3,29.84,SSW,196,0.0,6.0,79,0.00,,,0.00,VWS V14.01,2013-02-26 15:45:00,
2013-02-26 09:49:00,27.0,21.3,29.83,SSW,196,0.0,3.0,79,0.00,,,0.00,VWS V14.01,2013-02-26 15:49:00,
2013-02-26 09:54:00,27.4,21.7,29.83,SSW,200,1.0,5.0,79,0.00,,,0.00,VWS V14.01,2013-02-26 15:54:00,
2013-02-26 09:59:00,27.6,21.6,29.84,SSW,205,3.0,6.0,78,0.00,,,0.00,VWS V14.01,2013-02-26 15:59:00,
2013-02-26 10:00:00,27.6,21.6,29.84,SSW,211,5.0,7.0,78,0.00,,,0.00,VWS V14.01,2013-02-26 16:00:00,
2013-02-26 10:04:00,27.5,21.5,29.83,SSW,208,7.0,8.0,78,0.00,,,0.00,VWS V14.01,2013-02-26 16:04:00,
2013-02-26 10:09:00,27.5,21.8,29.84,SW,221,3.0,8.0,79,0.00,,,0.00,VWS V14.01,2013-02-26 16:09:00,
2013-02-26 10:14:00,27.9,22.1,29.84,SSW,208,2.0,8.0,79,0.00,,,0.00,VWS V14.01,2013-02-26 16:14:00,
2013-02-26 10:15:00,28.0,22.2,29.84,SSW,209,5.0,8.0,79,0.00,,,0.00,VWS V14.01,2013-02-26 16:15:00,
2013-02-26 10:19:00,28.2,22.5,29.84,SW,217,5.0,7.0,79,0.00,,,0.00,VWS V14.01,2013-02-26 16:19:00,
2013-02-26 10:24:00,28.3,22.2,29.84,SW,225,5.0,9.0,78,0.00,,,0.00,VWS V14.01,2013-02-26 16:24:00,
2013-02-26 10:29:00,28.0,22.2,29.84,SW,227,2.0,9.0,79,0.00,,,0.00,VWS V14.01,2013-02-26 16:29:00,
2013-02-26 10:30:00,28.1,22.4,29.84,SW,227,2.0,9.0,79,0.00,,,0.00,VWS V14.01,2013-02-26 16:30:00,
2013-02-26 10:34:00,28.5,22.7,29.84,SW,220,5.0,7.0,79,0.00,,,0.00,VWS V14.01,2013-02-26 16:34:00,
2013-02-26 10:39:00,28.5,22.4,29.83,SW,235,2.0,7.0,78,0.00,,,0.00,VWS V14.01,2013-02-26 16:39:00,
2013-02-26 10:44:00,28.9,23.1,29.84,SW,235,3.0,7.0,79,0.00,,,0.00,VWS V14.01,2013-02-26 16:44:00,
2013-02-26 10:45:00,29.0,23.2,29.83,SW,235,0.0,7.0,79,0.00,,,0.00,VWS V14.01,2013-02-26 16:45:00,
2013-02-26 10:49:00,29.4,23.6,29.84,West,270,3.0,8.0,79,0.00,,,0.00,VWS V14.01,2013-02-26 16:49:00,
2013-02-26 10:54:00,29.6,23.5,29.84,SW,233,6.0,9.0,78,0.00,,,0.00,VWS V14.01,2013-02-26 16:54:00,
2013-02-26 10:59:00,29.3,23.2,29.83,SW,229,4.0,9.0,78,0.00,,,0.00,VWS V14.01,2013-02-26 16:59:00,
2013-02-26 11:00:00,29.4,23.3,29.83,SW,229,4.0,9.0,78,0.00,,,0.00,VWS V14.01,2013-02-26 17:00:00,
2013-02-26 11:04:00,29.5,23.7,29.83,SW,229,2.0,5.0,79,0.00,,,0.00,VWS V14.01,2013-02-26 17:04:00,
2013-02-26 11:09:00,30.0,23.9,29.84,SW,220,2.0,6.0,78,0.00,,,0.00,VWS V14.01,2013-02-26 17:09:00,
2013-02-26 11:14:00,30.5,24.1,29.84,SW,214,4.0,7.0,77,0.00,,,0.00,VWS V14.01,2013-02-26 17:14:00,
2013-02-26 11:15:00,30.5,24.1,29.84,SSW,207,5.0,7.0,77,0.00,,,0.00,VWS V14.01,2013-02-26 17:15:00,
2013-02-26 11:19:00,30.7,24.6,29.84,SSW,209,3.0,7.0,78,0.00,,,0.00,VWS V14.01,2013-02-26 17:19:00,
2013-02-26 11:24:00,31.0,24.5,29.85,SSW,205,4.0,7.0,77,0.00,,,0.00,VWS V14.01,2013-02-26 17:24:00,
2013-02-26 11:29:00,30.8,24.0,29.85,SSW,209,4.0,7.0,76,0.00,,,0.00,VWS V14.01,2013-02-26 17:29:00,
2013-02-26 11:30:00,30.9,24.5,29.85,SSW,207,5.0,7.0,77,0.00,,,0.00,VWS V14.01,2013-02-26 17:30:00,
2013-02-26 11:34:00,31.0,24.2,29.85,SSW,205,4.0,7.0,76,0.00,,,0.00,VWS V14.01,2013-02-26 17:34:00,
2013-02-26 11:39:00,31.4,24.6,29.85,SSW,209,6.0,7.0,76,0.00,,,0.00,VWS V14.01,2013-02-26 17:39:00,
2013-02-26 11:44:00,31.4,24.6,29.85,SSW,210,5.0,7.0,76,0.00,,,0.00,VWS V14.01,2013-02-26 17:44:00,
2013-02-26 11:45:00,31.4,24.6,29.85,SSW,213,5.0,7.0,76,0.00,,,0.00,VWS V14.01,2013-02-26 17:45:00,
2013-02-26 11:49:00,31.5,24.4,29.85,SSW,210,4.0,7.0,75,0.00,,,0.00,VWS V14.01,2013-02-26 17:49:00,
2013-02-26 11:54:00,31.5,24.7,29.85,SW,221,3.0,7.0,76,0.00,,,0.00,VWS V14.01,2013-02-26 17:54:00,
2013-02-26 11:59:00,31.6,24.8,29.85,SW,227,4.0,7.0,76,0.00,,,0.00,VWS V14.01,2013-02-26 17:59:00,
2013-02-26 12:00:00,31.6,24.8,29.84,SW,232,5.0,7.0,76,0.00,,,0.00,VWS V14.01,2013-02-26 18:00:00,
2013-02-26 12:04:00,31.8,25.3,29.84,SW,232,3.0,5.0,77,0.00,,,0.00,VWS V14.01,2013-02-26 18:04:00,
2013-02-26 12:09:00,32.4,25.6,29.84,SW,228,3.0,6.0,76,0.00,,,0.00,VWS V14.01,2013-02-26 18:09:00,
2013-02-26 12:14:00,32.8,25.7,29.84,SW,227,4.0,6.0,75,0.00,,,0.00,VWS V14.01,2013-02-26 18:14:00,
2013-02-26 12:15:00,33.0,25.9,29.84,SW,227,2.0,6.0,75,0.00,,,0.00,VWS V14.01,2013-02-26 18:15:00,
2013-02-26 12:19:00,33.3,26.1,29.84,SW,227,3.0,5.0,75,0.00,,,0.00,VWS V14.01,2013-02-26 18:19:00,
2013-02-26 12:24:00,33.9,26.4,29.85,SW,228,2.0,5.0,74,0.00,,,0.00,VWS V14.01,2013-02-26 18:24:00,
2013-02-26 12:29:00,34.2,26.4,29.85,West,278,4.0,6.0,73,0.00,,,0.00,VWS V14.01,2013-02-26 18:29:00,
2013-02-26 12:30:00,34.3,26.5,29.85,WNW,284,4.0,7.0,73,0.00,,,0.00,VWS V14.01,2013-02-26 18:30:00,
2013-02-26 12:34:00,34.7,26.9,29.86,WNW,291,4.0,11.0,73,0.00,,,0.00,VWS V14.01,2013-02-26 18:34:00,
2013-02-26 12:39:00,34.7,26.5,29.86,WNW,298,6.0,11.0,72,0.00,,,0.00,VWS V14.01,2013-02-26 18:39:00,
2013-02-26 12:44:00,34.9,26.7,29.85,NW,304,3.0,11.0,72,0.00,,,0.00,VWS V14.01,2013-02-26 18:44:00,
2013-02-26 12:45:00,35.0,26.8,29.85,NW,304,4.0,11.0,72,0.00,,,0.00,VWS V14.01,2013-02-26 18:45:00,
2013-02-26 12:49:00,35.3,27.1,29.86,NW,304,7.0,8.0,72,0.00,,,0.00,VWS V14.01,2013-02-26 18:49:00,
2013-02-26 12:54:00,35.5,26.9,29.85,WNW,292,3.0,8.0,71,0.00,,,0.00,VWS V14.01,2013-02-26 18:54:00,
2013-02-26 12:59:00,35.7,27.1,29.86,WNW,299,5.0,9.0,71,0.00,,,0.00,VWS V14.01,2013-02-26 18:59:00,
2013-02-26 13:00:00,35.8,27.2,29.86,WNW,298,4.0,9.0,71,0.00,,,0.00,VWS V14.01,2013-02-26 19:00:00,
2013-02-26 13:04:00,36.0,27.4,29.86,WNW,290,5.0,7.0,71,0.00,,,0.00,VWS V14.01,2013-02-26 19:04:00,
2013-02-26 13:09:00,36.5,27.9,29.86,WNW,286,3.0,7.0,71,0.00,,,0.00,VWS V14.01,2013-02-26 19:09:00,
2013-02-26 13:14:00,37.0,27.7,29.86,West,271,2.0,7.0,69,0.00,,,0.00,VWS V14.01,2013-02-26 19:14:00,
2013-02-26 13:15:00,37.1,27.8,29.86,West,271,3.0,7.0,69,0.00,,,0.00,VWS V14.01,2013-02-26 19:15:00,
2013-02-26 13:19:00,37.2,27.5,29.87,West,271,0.0,3.0,68,0.00,,,0.00,VWS V14.01,2013-02-26 19:19:00,
2013-02-26 13:24:00,37.7,28.4,29.87,West,271,4.0,4.0,69,0.00,,,0.00,VWS V14.01,2013-02-26 19:24:00,
2013-02-26 13:29:00,37.8,28.5,29.87,WSW,257,3.0,6.0,69,0.00,,,0.00,VWS V14.01,2013-02-26 19:29:00,
2013-02-26 13:30:00,37.7,28.4,29.87,WSW,248,3.0,8.0,69,0.00,,,0.00,VWS V14.01,2013-02-26 19:30:00,
2013-02-26 13:34:00,37.3,28.0,29.87,WSW,248,3.0,5.0,69,0.00,,,0.00,VWS V14.01,2013-02-26 19:34:00,
2013-02-26 13:39:00,37.5,28.5,29.88,WSW,248,3.0,5.0,70,0.00,,,0.00,VWS V14.01,2013-02-26 19:39:00,
2013-02-26 13:44:00,37.5,28.2,29.87,WSW,248,4.0,5.0,69,0.00,,,0.00,VWS V14.01,2013-02-26 19:44:00,
2013-02-26 13:45:00,37.4,28.1,29.87,WSW,248,1.0,5.0,69,0.00,,,0.00,VWS V14.01,2013-02-26 19:45:00,
2013-02-26 13:49:00,37.4,28.1,29.88,WSW,248,2.0,5.0,69,0.00,,,0.00,VWS V14.01,2013-02-26 19:49:00,
2013-02-26 13:54:00,37.3,28.0,29.88,WSW,248,2.0,5.0,69,0.00,,,0.00,VWS V14.01,2013-02-26 19:54:00,
2013-02-26 13:59:00,37.5,27.8,29.88,West,260,5.0,5.0,68,0.00,,,0.00,VWS V14.01,2013-02-26 19:59:00,
2013-02-26 14:00:00,37.4,27.7,29.88,WNW,289,3.0,7.0,68,0.00,,,0.00,VWS V14.01,2013-02-26 20:00:00,
2013-02-26 14:04:00,37.5,28.5,29.88,NW,305,4.0,5.0,70,0.00,,,0.00,VWS V14.01,2013-02-26 20:04:00,
2013-02-26 14:09:00,37.6,28.3,29.88,North,355,5.0,7.0,69,0.00,,,0.00,VWS V14.01,2013-02-26 20:09:00,
2013-02-26 14:14:00,37.4,28.1,29.88,NNE,16,5.0,7.0,69,0.00,,,0.00,VWS V14.01,2013-02-26 20:14:00,
2013-02-26 14:15:00,37.2,27.9,29.88,NNE,19,6.0,7.0,69,0.00,,,0.00,VWS V14.01,2013-02-26 20:15:00,
2013-02-26 14:19:00,36.9,27.9,29.88,NNE,19,4.0,6.0,70,0.00,,,0.00,VWS V14.01,2013-02-26 20:19:00,
2013-02-26 14:24:00,36.8,27.8,29.88,NNE,19,3.0,6.0,70,0.00,,,0.00,VWS V14.01,2013-02-26 20:24:00,
2013-02-26 14:29:00,36.8,27.5,29.88,NNE,20,6.0,7.0,69,0.00,,,0.00,VWS V14.01,2013-02-26 20:29:00,
2013-02-26 14:30:00,36.6,27.3,29.88,NNE,23,4.0,7.0,69,0.00,,,0.00,VWS V14.01,2013-02-26 20:30:00,
2013-02-26 14:34:00,36.4,27.5,29.88,NNE,23,2.0,5.0,70,0.00,,,0.00,VWS V14.01,2013-02-26 20:34:00,
2013-02-26 14:39:00,36.5,27.9,29.88,NNE,23,3.0,5.0,71,0.00,,,0.00,VWS V14.01,2013-02-26 20:39:00,
2013-02-26 14:44:00,36.5,27.9,29.88,NNE,23,5.0,5.0,71,0.00,,,0.00,VWS V14.01,2013-02-26 20:44:00,
2013-02-26 14:45:00,36.5,27.6,29.88,NNE,23,2.0,5.0,70,0.00,,,0.00,VWS V14.01,2013-02-26 20:45:00,
2013-02-26 14:49:00,36.5,27.6,29.88,NNE,23,2.0,5.0,70,0.00,,,0.00,VWS V14.01,2013-02-26 20:49:00,
2013-02-26 14:54:00,36.6,27.6,29.88,NNE,23,3.0,5.0,70,0.00,,,0.00,VWS V14.01,2013-02-26 20:54:00,
2013-02-26 14:59:00,36.4,27.5,29.88,NNE,23,3.0,6.0,70,0.00,,,0.00,VWS V14.01,2013-02-26 20:59:00,
2013-02-26 15:00:00,36.3,27.4,29.88,NNE,23,4.0,6.0,70,0.00,,,0.00,VWS V14.01,2013-02-26 21:00:00,
2013-02-26 15:04:00,35.9,26.6,29.89,NNE,23,3.0,6.0,69,0.00,,,0.00,VWS V14.01,2013-02-26 21:04:00,
2013-02-26 15:09:00,35.1,26.6,29.89,NNE,25,2.0,7.0,71,0.00,,,0.00,VWS V14.01,2013-02-26 21:09:00,
2013-02-26 15:14:00,34.6,26.4,29.89,NNE,25,3.0,7.0,72,0.00,,,0.00,VWS V14.01,2013-02-26 21:14:00,
2013-02-26 15:15:00,34.6,26.4,29.89,NNE,25,4.0,7.0,72,0.00,,,0.00,VWS V14.01,2013-02-26 21:15:00,
2013-02-26 15:19:00,34.5,26.3,29.89,NNE,25,3.0,4.0,72,0.00,,,0.00,VWS V14.01,2013-02-26 21:19:00,
2013-02-26 15:24:00,34.4,26.2,29.90,NNE,25,2.0,4.0,72,0.00,,,0.00,VWS V14.01,2013-02-26 21:24:00,
2013-02-26 15:29:00,34.2,26.0,29.90,NNE,25,2.0,4.0,72,0.00,,,0.00,VWS V14.01,2013-02-26 21:29:00,
2013-02-26 15:30:00,34.2,26.4,29.90,NNE,25,2.0,4.0,73,0.00,,,0.00,VWS V14.01,2013-02-26 21:30:00,
2013-02-26 15:34:00,34.1,26.3,29.90,NNE,25,4.0,5.0,73,0.00,,,0.00,VWS V14.01,2013-02-26 21:34:00,
2013-02-26 15:39:00,33.6,25.8,29.90,NNE,25,2.0,5.0,73,0.00,,,0.00,VWS V14.01,2013-02-26 21:39:00,
2013-02-26 15:44:00,33.2,25.4,29.90,NNE,25,2.0,6.0,73,0.00,,,0.00,VWS V14.01,2013-02-26 21:44:00,
2013-02-26 15:45:00,33.1,25.6,29.90,NNE,25,3.0,6.0,74,0.00,,,0.00,VWS V14.01,2013-02-26 21:45:00,
2013-02-26 15:49:00,32.9,25.4,29.91,NNE,25,2.0,6.0,74,0.00,,,0.00,VWS V14.01,2013-02-26 21:49:00,
2013-02-26 15:54:00,32.2,25.1,29.91,NNE,25,1.0,6.0,75,0.00,,,0.00,VWS V14.01,2013-02-26 21:54:00,
2013-02-26 15:59:00,31.5,24.7,29.91,NNE,25,0.0,7.0,76,0.00,,,0.00,VWS V14.01,2013-02-26 21:59:00,
2013-02-26 16:00:00,31.4,24.6,29.91,NNE,25,0.0,7.0,76,0.00,,,0.00,VWS V14.01,2013-02-26 22:00:00,
2013-02-26 16:04:00,31.2,24.8,29.92,NNE,25,4.0,4.0,77,0.00,,,0.00,VWS V14.01,2013-02-26 22:04:00,
2013-02-26 16:09:00,30.6,24.2,29.92,NNW,336,0.0,8.0,77,0.00,,,0.00,VWS V14.01,2013-02-26 22:09:00,
2013-02-26 16:14:00,29.7,23.6,29.92,NW,323,2.0,8.0,78,0.00,,,0.00,VWS V14.01,2013-02-26 22:14:00,
2013-02-26 16:15:00,29.5,23.4,29.92,NW,323,2.0,8.0,78,0.00,,,0.00,VWS V14.01,2013-02-26 22:15:00,
2013-02-26 16:19:00,29.2,23.4,29.92,NW,326,2.0,6.0,79,0.00,,,0.00,VWS V14.01,2013-02-26 22:19:00,
2013-02-26 16:24:00,28.7,23.2,29.93,NNW,328,3.0,8.0,80,0.00,,,0.00,VWS V14.01,2013-02-26 22:24:00,
2013-02-26 16:29:00,28.1,22.9,29.93,NW,317,8.0,9.0,81,0.00,,,0.00,VWS V14.01,2013-02-26 22:29:00,
2013-02-26 16:30:00,27.7,22.3,29.93,NW,324,4.0,11.0,80,0.00,,,0.00,VWS V14.01,2013-02-26 22:30:00,
2013-02-26 16:34:00,27.4,22.3,29.93,NW,324,3.0,8.0,81,0.00,,,0.00,VWS V14.01,2013-02-26 22:34:00,
2013-02-26 16:39:00,27.1,22.0,29.93,NNW,327,5.0,8.0,81,0.00,,,0.00,VWS V14.01,2013-02-26 22:39:00,
2013-02-26 16:44:00,26.7,21.9,29.93,NW,320,1.0,8.0,82,0.00,,,0.00,VWS V14.01,2013-02-26 22:44:00,
2013-02-26 16:45:00,26.7,21.9,29.93,NW,321,5.0,8.0,82,0.00,,,0.00,VWS V14.01,2013-02-26 22:45:00,
2013-02-26 16:49:00,26.7,22.2,29.93,NW,326,3.0,7.0,83,0.00,,,0.00,VWS V14.01,2013-02-26 22:49:00,
2013-02-26 16:54:00,26.4,21.6,29.93,NW,323,4.0,7.0,82,0.00,,,0.00,VWS V14.01,2013-02-26 22:54:00,
2013-02-26 16:59:00,26.4,21.9,29.93,NW,321,4.0,7.0,83,0.00,,,0.00,VWS V14.01,2013-02-26 22:59:00,
2013-02-26 17:00:00,26.4,21.9,29.93,NW,321,2.0,7.0,83,0.00,,,0.00,VWS V14.01,2013-02-26 23:00:00,
2013-02-26 17:04:00,26.3,21.8,29.93,NW,321,4.0,5.0,83,0.00,,,0.00,VWS V14.01,2013-02-26 23:04:00,
2013-02-26 17:09:00,26.2,21.7,29.93,NW,321,4.0,6.0,83,0.00,,,0.00,VWS V14.01,2013-02-26 23:09:00,
2013-02-26 17:14:00,26.2,21.7,29.94,NW,321,0.0,6.0,83,0.00,,,0.00,VWS V14.01,2013-02-26 23:14:00,
2013-02-26 17:15:00,26.2,21.7,29.94,NW,321,2.0,6.0,83,0.00,,,0.00,VWS V14.01,2013-02-26 23:15:00,
2013-02-26 17:19:00,26.1,21.6,29.93,NW,321,2.0,5.0,83,0.00,,,0.00,VWS V14.01,2013-02-26 23:19:00,
2013-02-26 17:24:00,26.1,21.9,29.94,NW,321,3.0,5.0,84,0.00,,,0.00,VWS V14.01,2013-02-26 23:24:00,
2013-02-26 17:29:00,26.2,22.0,29.94,NW,325,2.0,5.0,84,0.00,,,0.00,VWS V14.01,2013-02-26 23:29:00,
2013-02-26 17:30:00,26.2,22.0,29.94,NW,326,4.0,5.0,84,0.00,,,0.00,VWS V14.01,2013-02-26 23:30:00,
2013-02-26 17:34:00,26.1,21.9,29.94,NW,326,1.0,4.0,84,0.00,,,0.00,VWS V14.01,2013-02-26 23:34:00,
2013-02-26 17:39:00,26.0,21.8,29.94,NW,326,0.0,6.0,84,0.00,,,0.00,VWS V14.01,2013-02-26 23:39:00,
2013-02-26 17:44:00,26.1,22.1,29.94,NW,321,7.0,9.0,85,0.00,,,0.00,VWS V14.01,2013-02-26 23:44:00,
2013-02-26 17:45:00,26.2,22.2,29.95,NW,320,8.0,9.0,85,0.00,,,0.00,VWS V14.01,2013-02-26 23:45:00,
2013-02-26 17:49:00,26.2,22.2,29.95,NW,311,7.0,10.0,85,0.00,,,0.00,VWS V14.01,2013-02-26 23:49:00,
2013-02-26 17:54:00,26.3,22.0,29.95,NW,313,7.0,10.0,84,0.00,,,0.00,VWS V14.01,2013-02-26 23:54:00,
2013-02-26 17:59:00,26.2,22.0,29.96,NW,311,7.0,12.0,84,0.00,,,0.00,VWS V14.01,2013-02-26 23:59:00,
2013-02-26 18:00:00,26.1,21.9,29.96,NW,311,7.0,12.0,84,0.00,,,0.00,VWS V14.01,2013-02-27 00:00:00,
2013-02-26 18:04:00,25.9,21.7,29.95,WNW,293,8.0,12.0,84,0.00,,,0.00,VWS V14.01,2013-02-27 00:04:00,
2013-02-26 18:09:00,25.6,21.4,29.96,NW,313,11.0,14.0,84,0.00,,,0.00,VWS V14.01,2013-02-27 00:09:00,
2013-02-26 18:14:00,25.6,21.4,29.96,NW,313,12.0,14.0,84,0.00,,,0.00,VWS V14.01,2013-02-27 00:14:00,
2013-02-26 18:15:00,25.6,21.4,29.96,WNW,294,11.0,14.0,84,0.00,,,0.00,VWS V14.01,2013-02-27 00:15:00,
2013-02-26 18:19:00,25.5,21.3,29.97,WNW,292,7.0,12.0,84,0.00,,,0.00,VWS V14.01,2013-02-27 00:19:00,
2013-02-26 18:24:00,25.2,21.0,29.97,WNW,295,7.0,12.0,84,0.00,,,0.00,VWS V14.01,2013-02-27 00:24:00,
2013-02-26 18:29:00,24.9,21.0,29.97,NW,315,11.0,12.0,85,0.00,,,0.00,VWS V14.01,2013-02-27 00:29:00,
2013-02-26 18:30:00,24.9,21.0,29.97,WNW,302,9.0,12.0,85,0.00,,,0.00,VWS V14.01,2013-02-27 00:30:00,
2013-02-26 18:34:00,24.8,20.9,29.97,NW,308,13.0,14.0,85,0.00,,,0.00,VWS V14.01,2013-02-27 00:34:00,
2013-02-26 18:39:00,24.5,20.6,29.98,NW,309,9.0,15.0,85,0.00,,,0.00,VWS V14.01,2013-02-27 00:39:00,
2013-02-26 18:44:00,24.4,20.7,29.98,NW,304,10.0,15.0,86,0.00,,,0.00,VWS V14.01,2013-02-27 00:44:00,
2013-02-26 18:45:00,24.3,20.6,29.98,NW,318,11.0,15.0,86,0.00,,,0.00,VWS V14.01,2013-02-27 00:45:00,
2013-02-26 18:49:00,24.2,20.5,29.98,NW,309,9.0,11.0,86,0.00,,,0.00,VWS V14.01,2013-02-27 00:49:00,
2013-02-26 18:54:00,24.2,20.5,29.98,NW,309,9.0,12.0,86,0.00,,,0.00,VWS V14.01,2013-02-27 00:54:00,
2013-02-26 18:59:00,24.0,20.4,29.98,NW,313,9.0,12.0,86,0.00,,,0.00,VWS V14.01,2013-02-27 00:59:00,
2013-02-26 19:00:00,24.0,20.4,29.98,NW,320,7.0,13.0,86,0.00,,,0.00,VWS V14.01,2013-02-27 01:00:00,
2013-02-26 19:04:00,24.0,20.4,29.99,NW,317,11.0,12.0,86,0.00,,,0.00,VWS V14.01,2013-02-27 01:04:00,
2013-02-26 19:09:00,23.8,20.1,29.99,NNW,340,6.0,13.0,86,0.00,,,0.00,VWS V14.01,2013-02-27 01:09:00,
2013-02-26 19:14:00,23.6,20.2,30.00,NW,318,7.0,13.0,87,0.00,,,0.00,VWS V14.01,2013-02-27 01:14:00,
2013-02-26 19:15:00,23.6,20.2,30.00,NW,307,10.0,13.0,87,0.00,,,0.00,VWS V14.01,2013-02-27 01:15:00,
2013-02-26 19:19:00,23.5,19.9,30.00,NNW,333,8.0,10.0,86,0.00,,,0.00,VWS V14.01,2013-02-27 01:19:00,
2013-02-26 19:24:00,23.4,20.0,30.00,NW,321,9.0,13.0,87,0.00,,,0.00,VWS V14.01,2013-02-27 01:24:00,
2013-02-26 19:29:00,23.1,19.7,30.00,NW,310,2.0,13.0,87,0.00,,,0.00,VWS V14.01,2013-02-27 01:29:00,
2013-02-26 19:30:00,23.1,19.7,30.00,NNW,329,6.0,13.0,87,0.00,,,0.00,VWS V14.01,2013-02-27 01:30:00,
2013-02-26 19:34:00,22.9,19.5,30.00,NW,323,8.0,12.0,87,0.00,,,0.00,VWS V14.01,2013-02-27 01:34:00,
2013-02-26 19:39:00,22.7,19.3,30.00,NW,308,9.0,12.0,87,0.00,,,0.00,VWS V14.01,2013-02-27 01:39:00,
2013-02-26 19:44:00,22.5,19.4,30.01,NW,313,10.0,12.0,88,0.00,,,0.00,VWS V14.01,2013-02-27 01:44:00,
2013-02-26 19:45:00,22.5,19.4,30.01,NW,311,9.0,12.0,88,0.00,,,0.00,VWS V14.01,2013-02-27 01:45:00,
2013-02-26 19:49:00,22.4,19.3,30.01,NW,317,8.0,10.0,88,0.00,,,0.00,VWS V14.01,2013-02-27 01:49:00,
2013-02-26 19:54:00,22.3,19.2,30.00,NW,323,6.0,10.0,88,0.00,,,0.00,VWS V14.01,2013-02-27 01:54:00,
2013-02-26 19:59:00,22.2,19.1,30.01,NW,315,7.0,10.0,88,0.00,,,0.00,VWS V14.01,2013-02-27 01:59:00,
2013-02-26 20:00:00,22.2,19.1,30.01,NW,313,5.0,10.0,88,0.00,,,0.00,VWS V14.01,2013-02-27 02:00:00,
2013-02-26 20:04:00,22.2,19.1,30.01,NW,313,9.0,10.0,88,0.00,,,0.00,VWS V14.01,2013-02-27 02:04:00,
2013-02-26 20:09:00,22.2,19.4,30.01,NW,313,8.0,12.0,89,0.00,,,0.00,VWS V14.01,2013-02-27 02:09:00,
2013-02-26 20:14:00,22.4,19.6,30.01,NW,322,5.0,12.0,89,0.00,,,0.00,VWS V14.01,2013-02-27 02:14:00,
2013-02-26 20:15:00,22.5,19.7,30.01,NW,315,10.0,12.0,89,0.00,,,0.00,VWS V14.01,2013-02-27 02:15:00,
2013-02-26 20:19:00,22.7,19.9,30.01,NW,319,10.0,11.0,89,0.00,,,0.00,VWS V14.01,2013-02-27 02:19:00,
2013-02-26 20:24:00,22.9,20.1,30.01,NNW,329,5.0,14.0,89,0.00,,,0.00,VWS V14.01,2013-02-27 02:24:00,
2013-02-26 20:29:00,23.0,20.2,30.01,NW,319,9.0,14.0,89,0.00,,,0.00,VWS V14.01,2013-02-27 02:29:00,
2013-02-26 20:30:00,22.9,20.1,30.01,NW,313,6.0,14.0,89,0.00,,,0.00,VWS V14.01,2013-02-27 02:30:00,
2013-02-26 20:34:00,22.9,20.1,30.01,NW,317,10.0,11.0,89,0.00,,,0.00,VWS V14.01,2013-02-27 02:34:00,
2013-02-26 20:39:00,23.1,20.5,30.02,NW,313,10.0,11.0,90,0.00,,,0.00,VWS V14.01,2013-02-27 02:39:00,
2013-02-26 20:44:00,23.2,20.6,30.02,NW,310,11.0,13.0,90,0.00,,,0.00,VWS V14.01,2013-02-27 02:44:00,
2013-02-26 20:45:00,23.2,20.6,30.01,NW,315,10.0,13.0,90,0.00,,,0.00,VWS V14.01,2013-02-27 02:45:00,
2013-02-26 20:49:00,23.2,20.6,30.01,NW,316,9.0,11.0,90,0.00,,,0.00,VWS V14.01,2013-02-27 02:49:00,
2013-02-26 20:54:00,23.4,20.8,30.02,NW,309,10.0,12.0,90,0.00,,,0.00,VWS V14.01,2013-02-27 02:54:00,
2013-02-26 20:59:00,23.5,20.9,30.02,NW,319,6.0,12.0,90,0.00,,,0.00,VWS V14.01,2013-02-27 02:59:00,
2013-02-26 21:00:00,23.5,20.9,30.02,NW,317,5.0,12.0,90,0.00,,,0.00,VWS V14.01,2013-02-27 03:00:00,
2013-02-26 21:04:00,23.6,21.0,30.02,NW,306,8.0,10.0,90,0.00,,,0.00,VWS V14.01,2013-02-27 03:04:00,
2013-02-26 21:09:00,23.8,21.5,30.02,NW,312,9.0,11.0,91,0.00,,,0.00,VWS V14.01,2013-02-27 03:09:00,
2013-02-26 21:14:00,23.8,21.2,30.02,NW,316,6.0,12.0,90,0.00,,,0.00,VWS V14.01,2013-02-27 03:14:00,
2013-02-26 21:15:00,23.8,21.2,30.02,NW,313,6.0,12.0,90,0.00,,,0.00,VWS V14.01,2013-02-27 03:15:00,
2013-02-26 21:19:00,23.8,21.2,30.02,NNW,327,8.0,9.0,90,0.00,,,0.00,VWS V14.01,2013-02-27 03:19:00,
2013-02-26 21:24:00,23.9,21.6,30.03,NW,307,8.0,11.0,91,0.00,,,0.00,VWS V14.01,2013-02-27 03:24:00,
2013-02-26 21:29:00,24.0,21.7,30.03,NW,311,8.0,11.0,91,0.00,,,0.00,VWS V14.01,2013-02-27 03:29:00,
2013-02-26 21:30:00,24.0,21.7,30.03,NW,308,7.0,11.0,91,0.00,,,0.00,VWS V14.01,2013-02-27 03:30:00,
2013-02-26 21:34:00,24.1,21.8,30.03,NW,311,6.0,9.0,91,0.00,,,0.00,VWS V14.01,2013-02-27 03:34:00,
2013-02-26 21:39:00,24.3,22.0,30.03,NW,315,6.0,11.0,91,0.00,,,0.00,VWS V14.01,2013-02-27 03:39:00,
2013-02-26 21:44:00,24.6,22.3,30.03,WNW,298,8.0,12.0,91,0.00,,,0.00,VWS V14.01,2013-02-27 03:44:00,
2013-02-26 21:45:00,24.7,22.4,30.03,NW,310,9.0,12.0,91,0.00,,,0.00,VWS V14.01,2013-02-27 03:45:00,
2013-02-26 21:49:00,24.9,22.6,30.03,NNW,340,6.0,13.0,91,0.00,,,0.00,VWS V14.01,2013-02-27 03:49:00,
2013-02-26 21:54:00,25.2,22.9,30.03,NW,315,14.0,18.0,91,0.00,,,0.00,VWS V14.01,2013-02-27 03:54:00,
2013-02-26 21:59:00,25.4,23.1,30.04,WNW,302,13.0,18.0,91,0.00,,,0.00,VWS V14.01,2013-02-27 03:59:00,
2013-02-26 22:00:00,25.4,22.8,30.04,NW,313,10.0,18.0,90,0.00,,,0.00,VWS V14.01,2013-02-27 04:00:00,
2013-02-26 22:04:00,25.5,22.9,30.04,NW,315,11.0,16.0,90,0.00,,,0.00,VWS V14.01,2013-02-27 04:04:00,
2013-02-26 22:09:00,25.4,22.8,30.04,NW,309,7.0,16.0,90,0.00,,,0.00,VWS V14.01,2013-02-27 04:09:00,
2013-02-26 22:14:00,25.3,22.7,30.04,NW,315,7.0,16.0,90,0.00,,,0.00,VWS V14.01,2013-02-27 04:14:00,
2013-02-26 22:15:00,25.3,22.7,30.04,NW,304,7.0,16.0,90,0.00,,,0.00,VWS V14.01,2013-02-27 04:15:00,
2013-02-26 22:19:00,25.2,22.6,30.04,NW,306,9.0,12.0,90,0.00,,,0.00,VWS V14.01,2013-02-27 04:19:00,
2013-02-26 22:24:00,24.9,22.0,30.04,NW,315,4.0,12.0,89,0.00,,,0.00,VWS V14.01,2013-02-27 04:24:00,
2013-02-26 22:29:00,24.7,21.9,30.04,NW,306,8.0,12.0,89,0.00,,,0.00,VWS V14.01,2013-02-27 04:29:00,
2013-02-26 22:30:00,24.6,21.8,30.04,NW,304,7.0,12.0,89,0.00,,,0.00,VWS V14.01,2013-02-27 04:30:00,
2013-02-26 22:34:00,24.6,22.0,30.04,WNW,292,7.0,12.0,90,0.00,,,0.00,VWS V14.01,2013-02-27 04:34:00,
2013-02-26 22:39:00,24.5,21.9,30.04,NNW,327,10.0,12.0,90,0.00,,,0.00,VWS V14.01,2013-02-27 04:39:00,
2013-02-26 22:44:00,24.4,21.8,30.04,NW,309,10.0,13.0,90,0.00,,,0.00,VWS V14.01,2013-02-27 04:44:00,
2013-02-26 22:45:00,24.3,21.5,30.05,NW,315,10.0,13.0,89,0.00,,,0.00,VWS V14.01,2013-02-27 04:45:00,
2013-02-26 22:49:00,24.2,21.4,30.04,NW,317,10.0,11.0,89,0.00,,,0.00,VWS V14.01,2013-02-27 04:49:00,
2013-02-26 22:54:00,24.1,21.5,30.04,NW,321,10.0,12.0,90,0.00,,,0.00,VWS V14.01,2013-02-27 04:54:00,
2013-02-26 22:59:00,24.0,21.4,30.05,NW,317,9.0,12.0,90,0.00,,,0.00,VWS V14.01,2013-02-27 04:59:00,
2013-02-26 23:00:00,24.0,21.4,30.05,NW,310,7.0,12.0,90,0.00,,,0.00,VWS V14.01,2013-02-27 05:00:00,
2013-02-26 23:05:00,23.7,21.1,30.05,NW,311,6.0,9.0,90,0.00,,,0.00,VWS V14.01,2013-02-27 05:05:00,
2013-02-26 23:10:00,23.7,21.1,30.05,NW,315,8.0,11.0,90,0.00,,,0.00,VWS V14.01,2013-02-27 05:10:00,
2013-02-26 23:15:00,23.6,21.0,30.05,NW,319,6.0,11.0,90,0.00,,,0.00,VWS V14.01,2013-02-27 05:15:00,
2013-02-26 23:20:00,23.3,20.7,30.05,NW,320,6.0,9.0,90,0.00,,,0.00,VWS V14.01,2013-02-27 05:20:00,
2013-02-26 23:25:00,23.1,20.5,30.05,NW,317,6.0,11.0,90,0.00,,,0.00,VWS V14.01,2013-02-27 05:25:00,
2013-02-26 23:30:00,22.9,20.3,30.05,NW,321,6.0,13.0,90,0.00,,,0.00,VWS V14.01,2013-02-27 05:30:00,
2013-02-26 23:35:00,22.7,20.1,30.05,NW,317,6.0,10.0,90,0.00,,,0.00,VWS V14.01,2013-02-27 05:35:00,
2013-02-26 23:40:00,22.4,19.8,30.05,NNW,330,4.0,10.0,90,0.00,,,0.00,VWS V14.01,2013-02-27 05:40:00,
2013-02-26 23:45:00,22.3,19.7,30.05,NNW,327,3.0,10.0,90,0.00,,,0.00,VWS V14.01,2013-02-27 05:45:00,
2013-02-26 23:50:00,22.1,19.5,30.05,NW,321,9.0,11.0,90,0.00,,,0.00,VWS V14.01,2013-02-27 05:50:00,
2013-02-26 23:55:00,21.8,19.2,30.05,NW,320,4.0,13.0,90,0.00,,,0.00,VWS V14.01,2013-02-27 05:55:00,